General Rudder — WTAU — position and weather

sailwx.info

Track history (hours):
 
Tides and Currents Weather Stations Pressure Air Temp Water Temp Dewpoint Dewpoint Depression Visibility Wind Speed Wind Dir Waves Ship Positions

General Rudder

Owner: Texas A&M University at Galveston, Galvston, TX. More information available from US FCC via Universal Licensing System and Coast Guard Vessel Documentation Center.

Last reported at 2018-May-14 19:27 UTC. Time now 2018-May-27 10:00 UTC.
Position N 30°01' W 094°00'.
Warning: this ship's position is 12 days out of date.

Length 60 m; draft 4.3 m.

Type: Ship. MMSI: 367604000.

Date/timePositionNaut miles runAvg speedWind from/ knotsBaromVisibWave heightAir tempDewpointWater temp
2018-May-14 19:27N 30°01' W 094°00'0 0.0
2018-May-14 18:58N 30°01' W 094°00'1 2.6
2018-May-14 18:30N 30°01' W 093°59'3 6.4
2018-May-14 18:00N 29°59' W 093°56'4 7.9
2018-May-14 17:30N 29°58' W 093°51'4 8.3
2018-May-14 17:00N 29°55' W 093°54'3 6.8
2018-May-14 16:30N 29°52' W 093°56'3 6.6
2018-May-14 16:00N 29°49' W 093°57'3 6.3
2018-May-14 15:30N 29°46' W 093°56'3 6.2
2018-May-14 15:00N 29°45' W 093°53'3 5.6
2018-May-14 14:30N 29°42' W 093°51'4 7.6
2018-May-14 14:00N 29°39' W 093°49'4 8.1
2018-May-14 13:30N 29°35' W 093°47'3 6.3
2018-May-14 13:00N 29°33' W 093°44'4 8.5
2018-May-14 12:29N 29°30' W 093°41'4 8.6
2018-May-14 12:00N 29°26' W 093°39'1 0.1
2018-May-13 16:55N 29°25' W 093°39'1 1.6
2018-May-13 16:30N 29°25' W 093°38'2 4.6
2018-May-13 16:00N 29°25' W 093°36'7 4.1
2018-May-13 14:23N 29°31' W 093°33'2 5.7
2018-May-13 13:59N 29°32' W 093°35'3 6.2
2018-May-13 13:30N 29°33' W 093°38'3 6.1
2018-May-13 13:00N 29°35' W 093°41'3 6.2
2018-May-13 12:31N 29°36' W 093°45'2 3.2
2018-May-13 11:59N 29°36' W 093°46'0 0.0
2018-May-13 11:29N 29°36' W 093°46'0 0.0
2018-May-13 10:59N 29°36' W 093°46'0 0.0
2018-May-13 10:26N 29°36' W 093°46'0 0.0
2018-May-13 09:59N 29°36' W 093°46'0 0.0
2018-May-13 09:26N 29°36' W 093°46'0 0.0
2018-May-13 08:56N 29°36' W 093°46'0 0.0
2018-May-13 08:29N 29°36' W 093°46'0 0.0
2018-May-13 07:56N 29°36' W 093°46'0 0.0
2018-May-13 07:26N 29°36' W 093°46'0 0.0
2018-May-13 06:56N 29°36' W 093°46'0 0.1
2018-May-13 06:29N 29°36' W 093°46'0 0.0
2018-May-13 05:59N 29°36' W 093°46'0 0.0
2018-May-13 05:26N 29°36' W 093°46'0 0.0
2018-May-13 04:50N 29°36' W 093°46'0 0.1
2018-May-13 04:26N 29°36' W 093°46'0 0.0
2018-May-13 03:59N 29°36' W 093°46'0 0.0
2018-May-13 03:29N 29°36' W 093°46'0 0.0
2018-May-13 02:59N 29°36' W 093°46'1 3.0
2018-May-13 02:30N 29°35' W 093°46'3 6.9
2018-May-13 02:00N 29°32' W 093°44'3 6.5
2018-May-13 01:30N 29°31' W 093°47'3 6.5
2018-May-13 01:00N 29°30' W 093°51'3 6.5
2018-May-13 00:31N 29°29' W 093°54'3 6.2
2018-May-13 00:00N 29°28' W 093°58'3 6.5
2018-May-12 23:30N 29°26' W 094°00'4 6.5
2018-May-12 22:58N 29°24' W 094°03'3 6.6
2018-May-12 22:31N 29°22' W 094°06'3 6.7
2018-May-12 22:00N 29°19' W 094°09'5 6.6
2018-May-12 21:15N 29°16' W 094°13'2 6.5
2018-May-12 20:56N 29°15' W 094°15'25 5.6
2018-May-12 16:25N 29°21' W 094°43'1 0.5
2018-May-12 14:26N 29°21' W 094°44'0 0.0
2018-May-12 13:02N 29°21' W 094°44'0 0.1
2018-May-12 12:53N 29°21' W 094°44'0 0.0
2018-May-12 12:14N 29°21' W 094°44'0 0.1
2018-May-12 11:56N 29°21' W 094°44'0 0.0
2018-May-12 05:02N 29°21' W 094°44'0 0.1
2018-May-12 04:50N 29°21' W 094°44'1 0.2
2018-May-11 23:18N 29°21' W 094°45'0 0.0
2018-May-11 22:59N 29°21' W 094°45'0 0.0
2018-May-11 22:30N 29°21' W 094°45'0 0.0
2018-May-11 21:15N 29°21' W 094°45'0 0.0
2018-May-11 20:56N 29°21' W 094°45'1 1.1
2018-May-11 20:20N 29°21' W 094°46'2 4.9
2018-May-11 19:57N 29°19' W 094°47'2 4.7
2018-May-11 19:30N 29°19' W 094°49'0 0.0
2018-May-11 16:55N 29°19' W 094°49'0 0.0
2018-May-11 13:43N 29°19' W 094°49'0 0.0
2018-May-10 18:07N 29°19' W 094°49'0 0.0
2018-May-10 17:55N 29°19' W 094°49'0 0.0
2018-May-10 12:01N 29°19' W 094°49'0 0.0
2018-May-10 11:04N 29°19' W 094°49'0 0.0
2018-May-10 10:49N 29°19' W 094°49'0 0.0
2018-May-10 10:04N 29°19' W 094°49'0 0.0
2018-May-10 09:55N 29°19' W 094°49'0 0.0
2018-May-10 09:28N 29°19' W 094°49'0 0.0
2018-May-10 08:31N 29°19' W 094°49'0 0.0
2018-May-10 08:28N 29°19' W 094°49'0 0.0
2018-May-10 07:58N 29°19' W 094°49'0 0.0
2018-May-10 07:28N 29°19' W 094°49'0 0.0
2018-May-10 06:58N 29°19' W 094°49'0 0.0
2018-May-10 06:19N 29°19' W 094°49'0 0.0
2018-May-10 04:40N 29°19' W 094°49'0 0.0
2018-May-10 04:10N 29°19' W 094°49'0 0.0
2018-May-10 03:55N 29°19' W 094°49'0 0.0
2018-May-10 02:46N 29°19' W 094°49'0 0.0
2018-May-10 02:16N 29°19' W 094°49'0 0.0
2018-May-10 01:58N 29°19' W 094°49'0 0.0
2018-May-10 00:25N 29°19' W 094°49'0 0.0
2018-May-09 23:43N 29°19' W 094°49'0 0.0
2018-May-09 21:22N 29°19' W 094°49'0 0.0
2018-May-09 19:37N 29°19' W 094°49'0 0.0
2018-May-09 19:25N 29°19' W 094°49'0 0.0
2018-May-09 18:55N 29°19' W 094°49'0 0.0
2018-May-09 09:01N 29°19' W 094°49'0 0.0
2018-May-09 08:49N 29°19' W 094°49'0 0.0
2018-May-09 08:28N 29°19' W 094°49'0 0.0
2018-May-09 07:46N 29°19' W 094°49'0 0.0
2018-May-09 07:28N 29°19' W 094°49'0 0.0
2018-May-09 06:58N 29°19' W 094°49'0 0.0
2018-May-09 06:25N 29°19' W 094°49'0 0.0
2018-May-09 05:58N 29°19' W 094°49'0 0.0
2018-May-09 05:25N 29°19' W 094°49'0 0.0
2018-May-09 04:58N 29°19' W 094°49'0 0.0
2018-May-09 04:25N 29°19' W 094°49'0 0.0
2018-May-09 03:55N 29°19' W 094°49'0 0.0
2018-May-09 03:25N 29°19' W 094°49'0 0.0
2018-May-09 02:58N 29°19' W 094°49'0 0.0
2018-May-09 02:28N 29°19' W 094°49'0 0.0
2018-May-09 01:55N 29°19' W 094°49'0 0.0
2018-May-09 01:28N 29°19' W 094°49'0 0.0
2018-May-09 00:58N 29°19' W 094°49'0 0.0
2018-May-09 00:28N 29°19' W 094°49'0 0.0
2018-May-08 23:55N 29°19' W 094°49'0 0.0
2018-May-08 23:25N 29°19' W 094°49'0 0.0
2018-May-08 22:55N 29°19' W 094°49'0 0.0
2018-May-08 22:28N 29°19' W 094°49'0 0.0
2018-May-08 21:43N 29°19' W 094°49'0 0.0
2018-May-08 21:28N 29°19' W 094°49'0 0.0
2018-May-08 20:43N 29°19' W 094°49'0 0.0
2018-May-08 20:28N 29°19' W 094°49'0 0.0
2018-May-08 19:55N 29°19' W 094°49'0 0.0
2018-May-08 19:25N 29°19' W 094°49'0 0.0
2018-May-08 14:34N 29°19' W 094°49'0 0.0
2018-May-08 14:25N 29°19' W 094°49'0 0.0
2018-May-08 13:46N 29°19' W 094°49'0 0.0
2018-May-08 13:16N 29°19' W 094°49'0 0.0
2018-May-08 12:58N 29°19' W 094°49'0 0.0
2018-May-08 12:19N 29°19' W 094°49'0 0.0
2018-May-08 11:55N 29°19' W 094°49'0 0.0
2018-May-08 11:25N 29°19' W 094°49'0 0.0
2018-May-08 10:55N 29°19' W 094°49'0 0.0
2018-May-08 09:49N 29°19' W 094°49'0 0.0
2018-May-08 09:28N 29°19' W 094°49'0 0.0
2018-May-08 08:46N 29°19' W 094°49'0 0.0
2018-May-08 08:28N 29°19' W 094°49'0 0.0
2018-May-08 07:58N 29°19' W 094°49'0 0.0
2018-May-08 07:19N 29°19' W 094°49'0 0.0
2018-May-08 06:58N 29°19' W 094°49'0 0.0
2018-May-08 06:25N 29°19' W 094°49'0 0.0
2018-May-08 05:58N 29°19' W 094°49'0 0.0
2018-May-08 05:19N 29°19' W 094°49'0 0.0
2018-May-08 04:58N 29°19' W 094°49'0 0.0
2018-May-08 04:22N 29°19' W 094°49'0 0.0
2018-May-08 03:55N 29°19' W 094°49'0 0.0
2018-May-08 03:28N 29°19' W 094°49'0 0.0
2018-May-08 02:43N 29°19' W 094°49'0 0.0
2018-May-08 02:28N 29°19' W 094°49'0 0.0
2018-May-08 01:55N 29°19' W 094°49'0 0.0
2018-May-08 01:28N 29°19' W 094°49'0 0.0
2018-May-08 00:55N 29°19' W 094°49'0 0.0
2018-May-08 00:16N 29°19' W 094°49'0 0.0
2018-May-07 23:58N 29°19' W 094°49'0 0.0
2018-May-07 20:31N 29°19' W 094°49'0 0.0
2018-May-07 17:01N 29°19' W 094°49'0 0.0
2018-May-07 16:49N 29°19' W 094°49'0 0.0
2018-May-07 16:28N 29°19' W 094°49'0 0.0
2018-May-07 15:04N 29°19' W 094°49'0 0.0
2018-May-07 14:58N 29°19' W 094°49'0 0.0
2018-May-07 14:22N 29°19' W 094°49'0 0.0
2018-May-07 13:55N 29°19' W 094°49'0 0.0
2018-May-07 13:28N 29°19' W 094°49'0 0.0
2018-May-07 12:25N 29°19' W 094°49'0 0.0
2018-May-07 11:49N 29°19' W 094°49'0 0.0
2018-May-07 11:31N 29°19' W 094°49'0 0.0
2018-May-07 11:01N 29°19' W 094°49'0 0.0
2018-May-07 10:25N 29°19' W 094°49'0 0.0
2018-May-07 09:49N 29°19' W 094°49'0 0.0
2018-May-07 09:28N 29°19' W 094°49'0 0.0
2018-May-07 09:01N 29°19' W 094°49'0 0.0
2018-May-07 08:28N 29°19' W 094°49'0 0.0
2018-May-07 07:58N 29°19' W 094°49'0 0.0
2018-May-07 04:46N 29°19' W 094°49'0 0.0
2018-May-07 04:25N 29°19' W 094°49'0 0.0
2018-May-07 03:55N 29°19' W 094°49'0 0.0
2018-May-07 02:52N 29°19' W 094°49'0 0.0
2018-May-07 02:22N 29°19' W 094°49'0 0.0
2018-May-07 01:52N 29°19' W 094°49'0 0.0
2018-May-07 01:25N 29°19' W 094°49'0 0.0
2018-May-06 21:49N 29°19' W 094°49'0 0.0
2018-May-06 14:09N 29°19' W 094°49'0 0.0
2018-May-06 13:57N 29°19' W 094°49'0 0.0
2018-May-06 13:15N 29°19' W 094°49'0 0.0
2018-May-06 11:54N 29°19' W 094°49'0 0.0
2018-May-06 11:30N 29°19' W 094°49'0 0.0
2018-May-06 11:00N 29°19' W 094°49'0 0.0
2018-May-06 10:25N 29°19' W 094°49'0 0.0
2018-May-06 09:55N 29°19' W 094°49'0 0.0
2018-May-06 09:30N 29°19' W 094°49'0 0.0
2018-May-06 09:00N 29°19' W 094°49'0 0.0
2018-May-06 08:30N 29°19' W 094°49'0 0.0
2018-May-06 08:00N 29°19' W 094°49'0 0.0
2018-May-06 07:30N 29°19' W 094°49'0 0.0
2018-May-06 07:00N 29°19' W 094°49'0 0.0
2018-May-06 06:30N 29°19' W 094°49'0 0.0
2018-May-06 06:00N 29°19' W 094°49'0 0.0
2018-May-06 05:25N 29°19' W 094°49'0 0.0
2018-May-06 04:39N 29°19' W 094°49'0 0.0
2018-May-06 04:21N 29°19' W 094°49'0 0.0
2018-May-05 23:21N 29°19' W 094°49'0 0.0
2018-May-05 23:00N 29°19' W 094°49'0 0.0
2018-May-05 22:21N 29°19' W 094°49'0 0.0
2018-May-05 21:36N 29°19' W 094°49'0 0.0
2018-May-05 21:24N 29°19' W 094°49'0 0.0
2018-May-05 20:00N 29°19' W 094°49'0 0.0
2018-May-05 11:51N 29°19' W 094°49'0 0.0
2018-May-05 00:12N 29°19' W 094°49'  
Track history (hours):
 
Tides and Currents Weather Stations Pressure Air Temp Water Temp Dewpoint Dewpoint Depression Visibility Wind Speed Wind Dir Waves Ship Positions

General Rudder

Owner: Texas A&M University at Galveston, Galvston, TX. More information available from US FCC via Universal Licensing System and Coast Guard Vessel Documentation Center.

Last reported at 2018-May-14 19:27 UTC. Time now 2018-May-27 10:00 UTC.
Position N 30°01' W 094°00'.
Warning: this ship's position is 12 days out of date.

Length 60 m; draft 4.3 m.

Type: Ship. MMSI: 367604000.

Date/timePositionNaut miles runAvg speedWind from/ knotsBaromVisibWave heightAir tempDewpointWater temp
2018-May-14 19:27N 30°01' W 094°00'0 0.0
2018-May-14 18:58N 30°01' W 094°00'1 2.6
2018-May-14 18:30N 30°01' W 093°59'3 6.4
2018-May-14 18:00N 29°59' W 093°56'4 7.9
2018-May-14 17:30N 29°58' W 093°51'4 8.3
2018-May-14 17:00N 29°55' W 093°54'3 6.8
2018-May-14 16:30N 29°52' W 093°56'3 6.6
2018-May-14 16:00N 29°49' W 093°57'3 6.3
2018-May-14 15:30N 29°46' W 093°56'3 6.2
2018-May-14 15:00N 29°45' W 093°53'3 5.6
2018-May-14 14:30N 29°42' W 093°51'4 7.6
2018-May-14 14:00N 29°39' W 093°49'4 8.1
2018-May-14 13:30N 29°35' W 093°47'3 6.3
2018-May-14 13:00N 29°33' W 093°44'4 8.5
2018-May-14 12:29N 29°30' W 093°41'4 8.6
2018-May-14 12:00N 29°26' W 093°39'1 0.1
2018-May-13 16:55N 29°25' W 093°39'1 1.6
2018-May-13 16:30N 29°25' W 093°38'2 4.6
2018-May-13 16:00N 29°25' W 093°36'7 4.1
2018-May-13 14:23N 29°31' W 093°33'2 5.7
2018-May-13 13:59N 29°32' W 093°35'3 6.2
2018-May-13 13:30N 29°33' W 093°38'3 6.1
2018-May-13 13:00N 29°35' W 093°41'3 6.2
2018-May-13 12:31N 29°36' W 093°45'2 3.2
2018-May-13 11:59N 29°36' W 093°46'0 0.0
2018-May-13 11:29N 29°36' W 093°46'0 0.0
2018-May-13 10:59N 29°36' W 093°46'0 0.0
2018-May-13 10:26N 29°36' W 093°46'0 0.0
2018-May-13 09:59N 29°36' W 093°46'0 0.0
2018-May-13 09:26N 29°36' W 093°46'0 0.0
2018-May-13 08:56N 29°36' W 093°46'0 0.0
2018-May-13 08:29N 29°36' W 093°46'0 0.0
2018-May-13 07:56N 29°36' W 093°46'0 0.0
2018-May-13 07:26N 29°36' W 093°46'0 0.0
2018-May-13 06:56N 29°36' W 093°46'0 0.1
2018-May-13 06:29N 29°36' W 093°46'0 0.0
2018-May-13 05:59N 29°36' W 093°46'0 0.0
2018-May-13 05:26N 29°36' W 093°46'0 0.0
2018-May-13 04:50N 29°36' W 093°46'0 0.1
2018-May-13 04:26N 29°36' W 093°46'0 0.0
2018-May-13 03:59N 29°36' W 093°46'0 0.0
2018-May-13 03:29N 29°36' W 093°46'0 0.0
2018-May-13 02:59N 29°36' W 093°46'1 3.0
2018-May-13 02:30N 29°35' W 093°46'3 6.9
2018-May-13 02:00N 29°32' W 093°44'3 6.5
2018-May-13 01:30N 29°31' W 093°47'3 6.5
2018-May-13 01:00N 29°30' W 093°51'3 6.5
2018-May-13 00:31N 29°29' W 093°54'3 6.2
2018-May-13 00:00N 29°28' W 093°58'3 6.5
2018-May-12 23:30N 29°26' W 094°00'4 6.5
2018-May-12 22:58N 29°24' W 094°03'3 6.6
2018-May-12 22:31N 29°22' W 094°06'3 6.7
2018-May-12 22:00N 29°19' W 094°09'5 6.6
2018-May-12 21:15N 29°16' W 094°13'2 6.5
2018-May-12 20:56N 29°15' W 094°15'25 5.6
2018-May-12 16:25N 29°21' W 094°43'1 0.5
2018-May-12 14:26N 29°21' W 094°44'0 0.0
2018-May-12 13:02N 29°21' W 094°44'0 0.1
2018-May-12 12:53N 29°21' W 094°44'0 0.0
2018-May-12 12:14N 29°21' W 094°44'0 0.1
2018-May-12 11:56N 29°21' W 094°44'0 0.0
2018-May-12 05:02N 29°21' W 094°44'0 0.1
2018-May-12 04:50N 29°21' W 094°44'1 0.2
2018-May-11 23:18N 29°21' W 094°45'0 0.0
2018-May-11 22:59N 29°21' W 094°45'0 0.0
2018-May-11 22:30N 29°21' W 094°45'0 0.0
2018-May-11 21:15N 29°21' W 094°45'0 0.0
2018-May-11 20:56N 29°21' W 094°45'1 1.1
2018-May-11 20:20N 29°21' W 094°46'2 4.9
2018-May-11 19:57N 29°19' W 094°47'2 4.7
2018-May-11 19:30N 29°19' W 094°49'0 0.0
2018-May-11 16:55N 29°19' W 094°49'0 0.0
2018-May-11 13:43N 29°19' W 094°49'0 0.0
2018-May-10 18:07N 29°19' W 094°49'0 0.0
2018-May-10 17:55N 29°19' W 094°49'0 0.0
2018-May-10 12:01N 29°19' W 094°49'0 0.0
2018-May-10 11:04N 29°19' W 094°49'0 0.0
2018-May-10 10:49N 29°19' W 094°49'0 0.0
2018-May-10 10:04N 29°19' W 094°49'0 0.0
2018-May-10 09:55N 29°19' W 094°49'0 0.0
2018-May-10 09:28N 29°19' W 094°49'0 0.0
2018-May-10 08:31N 29°19' W 094°49'0 0.0
2018-May-10 08:28N 29°19' W 094°49'0 0.0
2018-May-10 07:58N 29°19' W 094°49'0 0.0
2018-May-10 07:28N 29°19' W 094°49'0 0.0
2018-May-10 06:58N 29°19' W 094°49'0 0.0
2018-May-10 06:19N 29°19' W 094°49'0 0.0
2018-May-10 04:40N 29°19' W 094°49'0 0.0
2018-May-10 04:10N 29°19' W 094°49'0 0.0
2018-May-10 03:55N 29°19' W 094°49'0 0.0
2018-May-10 02:46N 29°19' W 094°49'0 0.0
2018-May-10 02:16N 29°19' W 094°49'0 0.0
2018-May-10 01:58N 29°19' W 094°49'0 0.0
2018-May-10 00:25N 29°19' W 094°49'0 0.0
2018-May-09 23:43N 29°19' W 094°49'0 0.0
2018-May-09 21:22N 29°19' W 094°49'0 0.0
2018-May-09 19:37N 29°19' W 094°49'0 0.0
2018-May-09 19:25N 29°19' W 094°49'0 0.0
2018-May-09 18:55N 29°19' W 094°49'0 0.0
2018-May-09 09:01N 29°19' W 094°49'0 0.0
2018-May-09 08:49N 29°19' W 094°49'0 0.0
2018-May-09 08:28N 29°19' W 094°49'0 0.0
2018-May-09 07:46N 29°19' W 094°49'0 0.0
2018-May-09 07:28N 29°19' W 094°49'0 0.0
2018-May-09 06:58N 29°19' W 094°49'0 0.0
2018-May-09 06:25N 29°19' W 094°49'0 0.0
2018-May-09 05:58N 29°19' W 094°49'0 0.0
2018-May-09 05:25N 29°19' W 094°49'0 0.0
2018-May-09 04:58N 29°19' W 094°49'0 0.0
2018-May-09 04:25N 29°19' W 094°49'0 0.0
2018-May-09 03:55N 29°19' W 094°49'0 0.0
2018-May-09 03:25N 29°19' W 094°49'0 0.0
2018-May-09 02:58N 29°19' W 094°49'0 0.0
2018-May-09 02:28N 29°19' W 094°49'0 0.0
2018-May-09 01:55N 29°19' W 094°49'0 0.0
2018-May-09 01:28N 29°19' W 094°49'0 0.0
2018-May-09 00:58N 29°19' W 094°49'0 0.0
2018-May-09 00:28N 29°19' W 094°49'0 0.0
2018-May-08 23:55N 29°19' W 094°49'0 0.0
2018-May-08 23:25N 29°19' W 094°49'0 0.0
2018-May-08 22:55N 29°19' W 094°49'0 0.0
2018-May-08 22:28N 29°19' W 094°49'0 0.0
2018-May-08 21:43N 29°19' W 094°49'0 0.0
2018-May-08 21:28N 29°19' W 094°49'0 0.0
2018-May-08 20:43N 29°19' W 094°49'0 0.0
2018-May-08 20:28N 29°19' W 094°49'0 0.0
2018-May-08 19:55N 29°19' W 094°49'0 0.0
2018-May-08 19:25N 29°19' W 094°49'0 0.0
2018-May-08 14:34N 29°19' W 094°49'0 0.0
2018-May-08 14:25N 29°19' W 094°49'0 0.0
2018-May-08 13:46N 29°19' W 094°49'0 0.0
2018-May-08 13:16N 29°19' W 094°49'0 0.0
2018-May-08 12:58N 29°19' W 094°49'0 0.0
2018-May-08 12:19N 29°19' W 094°49'0 0.0
2018-May-08 11:55N 29°19' W 094°49'0 0.0
2018-May-08 11:25N 29°19' W 094°49'0 0.0
2018-May-08 10:55N 29°19' W 094°49'0 0.0
2018-May-08 09:49N 29°19' W 094°49'0 0.0
2018-May-08 09:28N 29°19' W 094°49'0 0.0
2018-May-08 08:46N 29°19' W 094°49'0 0.0
2018-May-08 08:28N 29°19' W 094°49'0 0.0
2018-May-08 07:58N 29°19' W 094°49'0 0.0
2018-May-08 07:19N 29°19' W 094°49'0 0.0
2018-May-08 06:58N 29°19' W 094°49'0 0.0
2018-May-08 06:25N 29°19' W 094°49'0 0.0
2018-May-08 05:58N 29°19' W 094°49'0 0.0
2018-May-08 05:19N 29°19' W 094°49'0 0.0
2018-May-08 04:58N 29°19' W 094°49'0 0.0
2018-May-08 04:22N 29°19' W 094°49'0 0.0
2018-May-08 03:55N 29°19' W 094°49'0 0.0
2018-May-08 03:28N 29°19' W 094°49'0 0.0
2018-May-08 02:43N 29°19' W 094°49'0 0.0
2018-May-08 02:28N 29°19' W 094°49'0 0.0
2018-May-08 01:55N 29°19' W 094°49'0 0.0
2018-May-08 01:28N 29°19' W 094°49'0 0.0
2018-May-08 00:55N 29°19' W 094°49'0 0.0
2018-May-08 00:16N 29°19' W 094°49'0 0.0
2018-May-07 23:58N 29°19' W 094°49'0 0.0
2018-May-07 20:31N 29°19' W 094°49'0 0.0
2018-May-07 17:01N 29°19' W 094°49'0 0.0
2018-May-07 16:49N 29°19' W 094°49'0 0.0
2018-May-07 16:28N 29°19' W 094°49'0 0.0
2018-May-07 15:04N 29°19' W 094°49'0 0.0
2018-May-07 14:58N 29°19' W 094°49'0 0.0
2018-May-07 14:22N 29°19' W 094°49'0 0.0
2018-May-07 13:55N 29°19' W 094°49'0 0.0
2018-May-07 13:28N 29°19' W 094°49'0 0.0
2018-May-07 12:25N 29°19' W 094°49'0 0.0
2018-May-07 11:49N 29°19' W 094°49'0 0.0
2018-May-07 11:31N 29°19' W 094°49'0 0.0
2018-May-07 11:01N 29°19' W 094°49'0 0.0
2018-May-07 10:25N 29°19' W 094°49'0 0.0
2018-May-07 09:49N 29°19' W 094°49'0 0.0
2018-May-07 09:28N 29°19' W 094°49'0 0.0
2018-May-07 09:01N 29°19' W 094°49'0 0.0
2018-May-07 08:28N 29°19' W 094°49'0 0.0
2018-May-07 07:58N 29°19' W 094°49'0 0.0
2018-May-07 04:46N 29°19' W 094°49'0 0.0
2018-May-07 04:25N 29°19' W 094°49'0 0.0
2018-May-07 03:55N 29°19' W 094°49'0 0.0
2018-May-07 02:52N 29°19' W 094°49'0 0.0
2018-May-07 02:22N 29°19' W 094°49'0 0.0
2018-May-07 01:52N 29°19' W 094°49'0 0.0
2018-May-07 01:25N 29°19' W 094°49'0 0.0
2018-May-06 21:49N 29°19' W 094°49'0 0.0
2018-May-06 14:09N 29°19' W 094°49'0 0.0
2018-May-06 13:57N 29°19' W 094°49'0 0.0
2018-May-06 13:15N 29°19' W 094°49'0 0.0
2018-May-06 11:54N 29°19' W 094°49'0 0.0
2018-May-06 11:30N 29°19' W 094°49'0 0.0
2018-May-06 11:00N 29°19' W 094°49'0 0.0
2018-May-06 10:25N 29°19' W 094°49'0 0.0
2018-May-06 09:55N 29°19' W 094°49'0 0.0
2018-May-06 09:30N 29°19' W 094°49'0 0.0
2018-May-06 09:00N 29°19' W 094°49'0 0.0
2018-May-06 08:30N 29°19' W 094°49'0 0.0
2018-May-06 08:00N 29°19' W 094°49'0 0.0
2018-May-06 07:30N 29°19' W 094°49'0 0.0
2018-May-06 07:00N 29°19' W 094°49'0 0.0
2018-May-06 06:30N 29°19' W 094°49'0 0.0
2018-May-06 06:00N 29°19' W 094°49'0 0.0
2018-May-06 05:25N 29°19' W 094°49'0 0.0
2018-May-06 04:39N 29°19' W 094°49'0 0.0
2018-May-06 04:21N 29°19' W 094°49'0 0.0
2018-May-05 23:21N 29°19' W 094°49'0 0.0
2018-May-05 23:00N 29°19' W 094°49'0 0.0
2018-May-05 22:21N 29°19' W 094°49'0 0.0
2018-May-05 21:36N 29°19' W 094°49'0 0.0
2018-May-05 21:24N 29°19' W 094°49'0 0.0
2018-May-05 20:00N 29°19' W 094°49'0 0.0
2018-May-05 11:51N 29°19' W 094°49'0 0.0
2018-May-05 00:12N 29°19' W 094°49'  

Dump ship's entire track history